Timeline UpdatesTrip UpdatesNews PostsPvt PostsTravel TipsAdmin PostsConv PostsFollowed PostsChat RequestsBlog PostsPNR Posts

Disclaimer
Search
 
 
Sun Aug 31, 2014 03:45:23 ISTHomeTrainsΣChainsAtlasPNRForumGalleryNewsFAQTripsMembersLoginFeedback
No Recent News for this Train
Other Trains in the News **new
Latest...
Permanent Augmentation of 1 3A coach wef 13/4/14
Fri Apr 04, 2014 (07:11PM)
⇐ Return Journey: Train# 11057

11058/Amritsar - Mumbai LTT (Pathankot) Express

May 08 2014 (6:27PM)
Change Departure Station:
Change Arrival Station:
Post a Train Travel TipPost a Train Travel Tip **new
Post a Comment/Question/Picture/VideoPost a Comment/Question/Picture/Video
Pantry/Catering
✕ NO Pantry Car
✓ Catering Avbl
RSA - Rake Sharing
No RSA.
Rake/Coach Composition
LOCO-SLR-RMS-S1-S2-S3-S4-S5-S6-S7-S8-B1-B2-B3-A1-MILITARY-GEN-GEN-LDS-[SLR-S10-S9-B4]. ; [SLR-S10-S9-B4] -> Is the Slip portion OF Dhule and attached to the main train at Chalisgaon.
Loco
ASR-UMB --> TKD WDM3A/WDP3A UMB-LTT --> GZB WAP-1/4/5/7
News    PNR    Forum    Time-Table    Availability    Fare Chart    Map    Arr/Dep History    Trips    Gallery    ΣChains    X/O    Timeline    
Travel Time: 1h 5m    1 halts    Distance: 84 km    Avg Speed: 77 km/hr
Type: Mail/Express
Zone: CR/Central
Departs @ 22:30 (Avg 3m late)
Platform# ???
SMTWTFS
Palwal/PWL 
Arrives @ 23:35 (Avg 14m late)
Platform# 1
SMTWTFS
Mathura Junction/MTJ 

1 halts. 9 intermediate Stations between Palwal and Mathura Junction

Show ALL intermediate Stations  Show Old Time-Table

#CodeStation NameX/OArrivesAvgDepartsAvgHaltPFDay#KmSpeedElevZoneAddress
1ASRAmritsar Junction (5)  -08:30+541-560.377233mNRAmritsar 143002, Punjab
2JNLJandiala (2)  08:45+1408:47+142m21-541.168238mNRJandiala, Punjab
3BEASBeas Junction (2)  09:08+1309:10+132m21-517.361238mNRBeas, Punjab
4KREKartarpur (2)X  09:31+1109:33+112m11-495.873236mNRKartarpur, Punjab
5JUCJalandhar City Junction (5)X  09:45+1409:55+1410m21-481.218239mNRJalandhar 144001, Punjab
6JRCJalandhar Cantt. Junction (3)  10:11+610:13+62m21-476.470239mNRNear Rama Mandi, Punjab
7PGWPhagwara Junction (3)  10:27+810:29+82m11-460.154245mNRPhagwara, Punjab
8GRYGoraya (2)  10:40+810:42+82m11-450.264240mNRGoraya, Punjab
9PHRPhillaur Junction (3)X  10:54+810:56+82m11-437.533246mNRPhillaur, Punjab
10LDHLudhiana Junction (7)  11:20+211:30+1510m41-424.429246mNRLudhiana 141001, Punjab
11AHHAhmadgarh (1)X  12:23+812:25+92m11-399.079256mNRAhmedgarh, Punjab
12METMalerkotla (2)  12:40+1412:42+132m21-379.153248mNRMalerkotla., Punjab
13DUIDhuri Junction (4)  13:01+1513:05+164m--1-362.377248mNRDhuri, Punjab
14NBANabha (1)  13:26+2513:28+262m11-335.470250mNRNabha, Punjab
15PTAPatiala (4)X  13:50+3013:53+323m11-309.535256mNRPatiala, Punjab
16RPJRajpura Junction (3)O  14:35+1614:37+162m21-284.765272mNRNH-1, Punjab
17UBCAmbala City (3)XO  14:56+1514:58+152m11-264.221273mNRNH-1, Haryana
18UMBAmbala Cantt. Junction (7)XO15:20+715:50+130m11-256.663278mNRAmbala 133001, Haryana
19SHDMShahbad Markanda (2)  16:09+1916:11+202m11-236.763267mNRShahabad Markanda, Haryana
20KKDEKurukshetra Junction (3)X  16:32+2016:34+202m21-214.560260mNRKurukshetra, Haryana
21NLKRNilokheri  16:51+1916:53+192m--1-197.534254mNRNilokheri, Haryana
22TRRTaraori (2)X  17:00+1917:02+212m21-193.652255mNRTaraori, Haryana
23KUNKarnal (3)X  17:16+1817:18+182m11-181.566253mNRKarnal, Haryana
24GRAGharaunda (2)  17:34+1717:36+172m11-164.056244mNRGharaunda, Haryana
25PNPPanipat Junction (5)X  17:54+1517:56+152m21-147.060235mNRPanipat, Haryana
26SMKSamalkha (3)  18:13+1318:15+132m11-130.157229mNRSamalkha, Haryana
27GNUGanaur  18:28+1218:30+122m--1-117.860222mNRGanaur, Haryana
28SNPSonipat (3)  18:46+1418:48+142m11-101.948225mNRSonipat, Haryana
29RDDERathdhana (2)  19:01+1319:03+132m--1-91.550223mNRSonipat, Haryana
30NURNarela (2)  19:11+1319:13+132m--1-84.859222mNRNarela, Delhi NCT
31ANDIAdarsh Nagar (2)  19:30+1319:32+132m11-68.121214mNRShalimar Bagh, Delhi NCT
32SZMDelhi Sabzi Mandi (2)  19:51+1219:53+142m31-61.59220mNRGulabi Bagh, Delhi NCT
33NDLSNew Delhi (16)X  20:20+1020:50+830m41-57.434215mNRNew Delhi, Delhi NCT
34NZMDelhi Hazrat Nizamuddin (7)X  21:03+1421:05+162m41-50.057209mNRNew Delhi 110013, Delhi NCT
35FDBFaridabad (4)X  21:27+1221:29+152m31-29.237206mNRold Faridabad, Haryana
36BVHBallabgarh (5)O  21:42+1621:44+182m--1-21.229203mNRFaridabad, Haryana
37PWL»Palwal (8)»  22:28+022:30+32m--10.085200mNRPalwal, Haryana
38KSVKosi Kalan (3)  23:00+1123:02+112m2142.575189mNCRKosi Kalan, Uttar Pradesh
39MTJ•Mathura Junction (10)•  23:35+1423:40+155m1183.956179mNCRMathura, Uttar Pradesh
40RKMRaja Ki Mandi (4)X  00:33+1600:35+162m22133.612170mNCRAgra, Uttar Pradesh
41AGCAgra Cantt. (6)X  00:55+1201:05+2010m12137.688174mNCRAgra, Uttar Pradesh
42DHODholpur Junction (3)X  01:41+3801:43+402m22190.273177mNCRDholpur, Rajasthan
43MRAMorena (3)X  02:05+4202:07+422m12217.054176mNCRMorena, Madhya Pradesh
44GWLGwalior Junction (4)X  02:50+4002:58+408m12255.677214mNCRGwalior, Madhya Pradesh
45DBADabra (3)X  03:31+4403:33+442m22297.949 NCRDabra(District-Gwalior), Madhya Pradesh
46SORSonagir (2)XO  03:56+4203:58+442m--2316.746211mNCRDatia, Madhya Pradesh
47DAADatia (2)X  04:13+4404:15+442m22328.343264mNCRDatia, Madhya Pradesh
48JHSJhansi Junction (7)X  04:50+4105:00+4610m52353.367259mNCRJhansi, Uttar Pradesh
49BABBabina (3)X  05:23+5305:25+542m12378.852285mNCRBabina, Uttar Pradesh
50BZYBasai (3)X  05:39+5405:41+562m12390.951287mNCR07522289600(Gate ManMob. - 9452701575), Madhya Pradesh
51TBTTalbahat (4)X  05:56+5505:58+572m12403.758314mNCRKhaniyadhana Station Rd, Madhya Pradesh
52LARLalitpur (3)  06:39+4906:41+512m22443.650373mNCRLalitpur, Uttar Pradesh
53JLNJakhalaun (3)  07:01+4507:03+482m22460.499394mNCRLalitpur(05176-272220), Uttar Pradesh
54DUADhaura (3)XO  07:10+5307:12+562m--2471.920407mNCRDhaura Tanda, Madhya Pradesh
55BINABina Junction (4)X  08:55+709:00+95m32506.569414mWCRJn Pt - KATNI/GUNA/ BPL/JHS, Madhya Pradesh
56MABAMandi Bamora (3)X  09:15+1309:17+132m22523.878413mWCRState Highway 14, Madhya Pradesh
57BAQGanj Basoda (4)X  09:39+1609:41+162m22552.367 WCRVidisha, Madhya Pradesh
58BHSVidisha (3)X  10:16+2210:18+232m22591.662 WCRVidisha, Madhya Pradesh
59BPLBhopal Junction (6)X  11:10+2911:15+365m12645.138497mWCRBhopal, Madhya Pradesh
60HBJBhopal HabibGanj (5)  11:25+3811:27+382m42651.464496mWCRHabibGanj, Madhya Pradesh
61MDDPMandi Dip (1)  11:42+4111:44+412m12667.562 WCRMandideep, Madhya Pradesh
62ODGObaidulla Ganj  11:57+4211:59+432m12681.054 WCRObaidullaganj Raisen Dist., Madhya Pradesh
63BNIBudni (2)X  12:33+4912:35+492m12711.846311mWCRSehore 466445 Madhya pradesh, Madhya Pradesh
64HBDHoshangabad (2)  12:44+4912:46+492m22718.737308mWCRHoshangabad, Madhya Pradesh
65ETItarsi Junction (7)X  13:15+4313:20+485m22736.884329mWCRItarsi 461111, Madhya Pradesh
66BPFBanapura (2)  13:44+5413:46+542m22770.377314mWCRBanapura, Madhya Pradesh
67TBNTimarni (2)  14:08+5314:10+522m12798.561308mWCRTimarni, Madhya Pradesh
68HDHarda (3)  14:24+4914:26+492m12812.676289mWCRHarda, Madhya Pradesh
69KKNKhirkiya (2)  14:51+4714:53+472m12844.280281mWCRSH 15, Madhya Pradesh
70CAERChhanera (2)  15:16+4515:18+452m22874.951283mWCRChhanera, Madhya Pradesh
71TLVTalvadiya (2)X  15:53+3415:55+332m22904.521308mWCRKhandwa, Madhya Pradesh
72KNWKhandwa Junction (5)X  16:40+1416:45+165m32920.378310mCRKhandwa, Madhya Pradesh
73NPNRNepanagar (2)  17:18+1817:20+202m--2962.968289mCRState Highway 27, Madhya Pradesh
74BAUBurhanpur (2)  17:43+2217:45+232m12989.193269mCRBurhanpur, Madhya Pradesh
75RVRaver (2)X  17:58+2718:00+272m--21009.376242mCRJalgaon, Maharashtra
76NBNimbhoraX  18:08+2918:10+282m121019.565229mCRJalgaon, Maharashtra
77SAVSavda (2)X  18:18+2918:20+292m221028.237220mCRSavda, Maharashtra
78BSLBhusaval Junction (8)X  18:45+2218:55+2710m421043.663208mCRBhusaval 425201, Maharashtra
79JLJalgaon Junction (4)X  19:18+3219:20+332m221067.787213mCRJalgaon 425001, Maharashtra
80PCPachora Junction (4)XO  19:53+3819:55+402m--21115.441264mCRPachora 424201, Maharashtra
81CSNChalisgaon Junction (3)X  21:00+1621:05+335m--21160.3101352mCRChalisgaon 424101, Maharashtra
82MMRManmad Junction (6)XO  21:45+5621:50+565m321227.867580mCRManmad 423104, Maharashtra
83NKNasik Road (3)  22:55+4623:00+465m321300.643563mCRNashik 422101, Maharashtra
84DVLDevlali (3)XO  23:08+5223:10+532m221306.330561mCRDist. Nashik 422401, Maharashtra
85IGPIgatpuri (4)X  00:40+1500:45+245m331351.243589mCRIgatpuri 422403, Maharashtra
86KYNKalyan Junction (8)  02:40+2702:45+245m631433.06710mCRKalyan 421301, Maharashtra
87TNAThane (10)  03:03+3303:05+362m831453.22210mCRThane (West) 400602, Maharashtra
88LTTMumbai Lokmanya Tilak Terminus (5)  03:50+15---31469.7-7mCRMumbai - 400089, Maharashtra
Scroll to Top
Scroll to Bottom